createdAt,value
2023-02-20T00:00:30.641Z,15.46
2023-02-20T00:02:57.639Z,15.32
2023-02-20T00:05:24.595Z,15.40
2023-02-20T00:07:51.149Z,15.38
2023-02-20T00:10:18.475Z,15.36
2023-02-20T00:12:45.105Z,15.39
2023-02-20T00:15:14.543Z,15.39
2023-02-20T00:17:43.325Z,15.38
2023-02-20T00:20:10.422Z,15.43
2023-02-20T00:22:37.073Z,15.34
2023-02-20T00:25:03.650Z,15.32
2023-02-20T00:27:30.293Z,15.38
2023-02-20T00:29:56.855Z,15.34
2023-02-20T00:32:23.410Z,15.27
2023-02-20T00:34:49.981Z,15.34
2023-02-20T00:37:16.575Z,15.33
2023-02-20T00:39:43.147Z,15.26
2023-02-20T00:42:09.781Z,15.27
2023-02-20T00:44:36.322Z,15.25
2023-02-20T00:47:02.889Z,15.19
2023-02-20T00:49:29.506Z,15.17
2023-02-20T00:51:56.066Z,15.20
2023-02-20T00:54:22.645Z,15.21
2023-02-20T00:56:49.273Z,15.24
2023-02-20T00:59:15.855Z,15.22
2023-02-20T01:01:42.590Z,15.17
2023-02-20T01:04:09.219Z,15.17
2023-02-20T01:06:35.776Z,15.20
2023-02-20T01:09:02.376Z,15.18
2023-02-20T01:11:28.954Z,15.19
2023-02-20T01:13:55.546Z,15.21
2023-02-20T01:16:22.184Z,15.15
2023-02-20T01:18:50.981Z,15.12
2023-02-20T01:21:17.666Z,15.13
2023-02-20T01:23:44.252Z,15.08
2023-02-20T01:26:12.723Z,15.12
2023-02-20T01:28:39.605Z,15.12
2023-02-20T01:31:07.412Z,15.12
2023-02-20T01:33:34.070Z,15.11
2023-02-20T01:36:00.668Z,15.12
2023-02-20T01:38:27.249Z,15.09
2023-02-20T01:40:53.851Z,15.08
2023-02-20T01:43:20.491Z,15.10
2023-02-20T01:45:47.160Z,15.08
2023-02-20T01:48:22.494Z,15.03
2023-02-20T01:50:51.285Z,15.03
2023-02-20T01:53:21.071Z,15.09
2023-02-20T01:55:53.470Z,15.05
2023-02-20T01:58:43.954Z,15.03
2023-02-20T02:01:11.453Z,15.06
2023-02-20T02:03:41.947Z,15.07
2023-02-20T02:06:10.166Z,15.03
2023-02-20T02:08:38.054Z,15.04
2023-02-20T02:11:11.752Z,14.99
2023-02-20T02:13:39.375Z,15.02
2023-02-20T02:16:31.754Z,14.99
2023-02-20T02:19:17.983Z,15.03
2023-02-20T02:22:05.466Z,15.02
2023-02-20T02:25:00.433Z,15.04
2023-02-20T02:28:08.212Z,14.94
2023-02-20T02:30:56.669Z,14.93
2023-02-20T02:34:09.540Z,14.97
2023-02-20T02:37:06.293Z,15.02
2023-02-20T02:39:40.880Z,14.99
2023-02-20T02:42:37.962Z,14.98
2023-02-20T02:45:13.155Z,14.99
2023-02-20T02:47:39.631Z,14.98
2023-02-20T02:50:09.812Z,14.91
2023-02-20T02:52:49.500Z,14.94
2023-02-20T02:55:22.357Z,14.90
2023-02-20T02:57:49.210Z,14.91
2023-02-20T03:00:19.898Z,14.89
2023-02-20T03:03:08.170Z,14.92
2023-02-20T03:05:46.487Z,14.86
2023-02-20T03:08:32.782Z,14.90
2023-02-20T03:11:07.892Z,14.88
2023-02-20T03:13:58.262Z,14.89
2023-02-20T03:16:32.903Z,14.84
2023-02-20T03:19:02.020Z,14.88
2023-02-20T03:21:28.789Z,14.89
2023-02-20T03:23:58.683Z,14.89
2023-02-20T03:26:34.944Z,14.89
2023-02-20T03:29:06.971Z,14.83
2023-02-20T03:31:34.645Z,14.82
2023-02-20T03:34:20.022Z,14.93
2023-02-20T03:37:09.681Z,14.87
2023-02-20T03:39:58.958Z,14.86
2023-02-20T03:42:44.539Z,14.87
2023-02-20T03:45:12.000Z,14.82
2023-02-20T03:47:43.718Z,14.81
2023-02-20T03:50:10.991Z,14.83
2023-02-20T03:52:37.838Z,14.87
2023-02-20T03:55:04.780Z,14.83
2023-02-20T03:57:34.903Z,14.89
2023-02-20T04:00:06.232Z,14.89
2023-02-20T04:02:37.745Z,14.84
2023-02-20T04:05:08.204Z,14.81
2023-02-20T04:07:43.082Z,14.79
2023-02-20T04:10:13.154Z,14.73
2023-02-20T04:12:43.268Z,14.75
2023-02-20T04:15:10.360Z,14.79
2023-02-20T04:17:46.785Z,14.81
2023-02-20T04:20:13.785Z,14.81
2023-02-20T04:22:44.084Z,14.74
2023-02-20T04:25:21.435Z,14.76
2023-02-20T04:27:48.150Z,14.81
2023-02-20T04:30:14.831Z,14.79
2023-02-20T04:32:41.395Z,14.77
2023-02-20T04:35:10.213Z,14.81
2023-02-20T04:37:36.791Z,14.80
2023-02-20T04:40:03.524Z,14.79
2023-02-20T04:42:30.077Z,14.70
2023-02-20T04:44:56.651Z,14.77
2023-02-20T04:47:23.235Z,14.75
2023-02-20T04:49:49.834Z,14.75
2023-02-20T04:52:16.494Z,14.71
2023-02-20T04:54:43.113Z,14.72
2023-02-20T04:57:09.724Z,14.71
2023-02-20T04:59:36.267Z,14.68
2023-02-20T05:02:02.916Z,14.71
2023-02-20T05:04:29.716Z,14.72
2023-02-20T05:06:57.990Z,14.76
2023-02-20T05:09:24.798Z,14.75
2023-02-20T05:11:51.541Z,14.72
2023-02-20T05:14:18.856Z,14.71
2023-02-20T05:16:45.819Z,14.66
2023-02-20T05:19:13.163Z,14.66
2023-02-20T05:22:01.633Z,14.63
2023-02-20T05:24:28.583Z,14.63
2023-02-20T05:26:56.010Z,14.68
2023-02-20T05:29:22.857Z,14.70
2023-02-20T05:31:49.603Z,14.67
2023-02-20T05:34:16.295Z,14.68
2023-02-20T05:36:42.911Z,14.62
2023-02-20T05:39:09.513Z,14.67
2023-02-20T05:41:36.091Z,14.73
2023-02-20T05:44:02.670Z,14.74
2023-02-20T05:46:29.325Z,14.65
2023-02-20T05:48:56.010Z,14.66
2023-02-20T05:51:28.237Z,14.66
2023-02-20T05:53:55.330Z,14.65
2023-02-20T05:56:22.342Z,14.72
2023-02-20T05:58:49.001Z,14.67
2023-02-20T06:01:20.974Z,14.58
2023-02-20T06:03:47.706Z,14.55
2023-02-20T06:06:14.701Z,14.60
2023-02-20T06:08:41.434Z,14.59
2023-02-20T06:11:10.029Z,14.61
2023-02-20T06:13:37.073Z,14.60
2023-02-20T06:16:03.985Z,14.59
2023-02-20T06:18:30.582Z,14.60
2023-02-20T06:20:57.186Z,14.56
2023-02-20T06:23:23.829Z,14.62
2023-02-20T06:25:50.445Z,14.60
2023-02-20T06:28:17.062Z,14.55
2023-02-20T06:30:43.670Z,14.59
2023-02-20T06:33:10.266Z,14.55
2023-02-20T06:35:39.622Z,14.59
2023-02-20T06:38:06.240Z,14.51
2023-02-20T06:40:32.827Z,14.55
2023-02-20T06:42:59.396Z,14.56
2023-02-20T06:45:25.947Z,14.58
2023-02-20T06:47:52.552Z,14.59
2023-02-20T06:50:22.158Z,14.61
2023-02-20T06:52:48.723Z,14.58
2023-02-20T06:55:15.357Z,14.55
2023-02-20T06:57:42.024Z,14.54
2023-02-20T07:00:09.770Z,14.52
2023-02-20T07:02:37.148Z,14.53
2023-02-20T07:05:05.080Z,14.85
2023-02-20T07:07:31.846Z,15.07
2023-02-20T07:10:01.455Z,15.23
2023-02-20T07:12:32.199Z,15.42
2023-02-20T07:14:59.173Z,15.61
2023-02-20T07:17:26.081Z,15.93
2023-02-20T07:19:59.406Z,16.17
2023-02-20T07:22:26.280Z,16.48
2023-02-20T07:24:53.710Z,16.77
2023-02-20T07:27:26.662Z,16.99
2023-02-20T07:29:53.302Z,17.20
2023-02-20T07:32:27.766Z,17.26
2023-02-20T07:35:03.647Z,17.29
2023-02-20T07:37:32.190Z,17.33
2023-02-20T07:40:00.959Z,17.36
2023-02-20T07:42:27.575Z,17.28
2023-02-20T07:44:54.247Z,17.27
2023-02-20T07:47:20.831Z,17.24
2023-02-20T07:49:47.399Z,17.15
2023-02-20T07:52:14.083Z,17.15
2023-02-20T07:54:40.929Z,17.05
2023-02-20T07:57:07.530Z,16.97
2023-02-20T07:59:34.158Z,16.92
2023-02-20T08:02:00.812Z,16.89
2023-02-20T08:04:27.714Z,16.85
2023-02-20T08:07:00.365Z,16.76
2023-02-20T08:09:27.046Z,16.76
2023-02-20T08:11:56.184Z,16.73
2023-02-20T08:14:23.086Z,16.67
2023-02-20T08:16:49.803Z,16.61
2023-02-20T08:19:17.742Z,16.59
2023-02-20T08:21:44.322Z,16.56
2023-02-20T08:24:10.911Z,16.50
2023-02-20T08:26:47.233Z,16.51
2023-02-20T08:29:17.386Z,16.51
2023-02-20T08:31:46.892Z,16.48
2023-02-20T08:34:13.531Z,16.42
2023-02-20T08:36:41.052Z,16.46
2023-02-20T08:39:07.698Z,16.39
2023-02-20T08:41:34.253Z,16.41
2023-02-20T08:44:02.178Z,16.38
2023-02-20T08:46:28.773Z,16.39
2023-02-20T08:48:55.708Z,16.31
2023-02-20T08:51:22.527Z,16.40
2023-02-20T08:53:49.135Z,16.36
2023-02-20T08:56:21.332Z,16.34
2023-02-20T08:58:47.967Z,16.32
2023-02-20T09:01:14.537Z,16.30
2023-02-20T09:03:42.286Z,16.23
2023-02-20T09:06:08.916Z,16.23
2023-02-20T09:08:37.960Z,16.22
2023-02-20T09:11:10.000Z,16.20
2023-02-20T09:13:43.429Z,16.20
2023-02-20T09:16:12.873Z,16.14
2023-02-20T09:18:39.828Z,16.16
2023-02-20T09:21:11.203Z,16.10
2023-02-20T09:23:38.132Z,16.06
2023-02-20T09:26:05.117Z,16.09
2023-02-20T09:28:32.173Z,16.00
2023-02-20T09:31:00.572Z,16.06
2023-02-20T09:33:29.438Z,15.99
2023-02-20T09:35:56.303Z,15.95
2023-02-20T09:38:26.315Z,15.88
2023-02-20T09:40:54.735Z,15.92
2023-02-20T09:43:21.244Z,15.90
2023-02-20T09:46:03.528Z,15.93
2023-02-20T09:49:07.830Z,15.93
2023-02-20T09:51:39.724Z,15.94
2023-02-20T09:54:13.200Z,15.94
2023-02-20T09:56:41.528Z,15.83
2023-02-20T09:59:27.132Z,15.88
2023-02-20T10:02:03.156Z,15.89
2023-02-20T10:05:00.854Z,15.87
2023-02-20T10:07:32.173Z,15.84
2023-02-20T10:10:00.280Z,15.84
2023-02-20T10:12:41.795Z,15.83
2023-02-20T10:15:45.329Z,15.88
2023-02-20T10:18:23.662Z,15.84
2023-02-20T10:20:57.235Z,15.76
2023-02-20T10:23:29.723Z,15.87
2023-02-20T10:25:59.249Z,15.83
2023-02-20T10:28:26.199Z,15.81
2023-02-20T10:31:25.995Z,15.78
2023-02-20T10:34:07.146Z,15.83
2023-02-20T10:36:34.388Z,15.85
2023-02-20T10:39:17.032Z,15.83
2023-02-20T10:42:05.390Z,15.81
2023-02-20T10:44:50.110Z,15.72
2023-02-20T10:47:50.868Z,15.78
2023-02-20T10:50:24.061Z,15.70
2023-02-20T10:53:06.725Z,15.79
2023-02-20T10:55:46.974Z,15.74
2023-02-20T10:58:20.067Z,15.74
2023-02-20T11:00:51.553Z,15.66
2023-02-20T11:03:24.430Z,15.51
2023-02-20T11:05:54.075Z,15.48
2023-02-20T11:08:21.879Z,15.50
2023-02-20T11:10:50.824Z,15.54
2023-02-20T11:13:21.139Z,15.42
2023-02-20T11:15:50.770Z,15.33
2023-02-20T11:18:26.320Z,15.23
2023-02-20T11:20:54.104Z,15.29
2023-02-20T11:23:39.159Z,15.40
2023-02-20T11:26:21.725Z,15.36
2023-02-20T11:28:59.778Z,15.38
2023-02-20T11:31:26.531Z,15.32
2023-02-20T11:33:54.853Z,15.39
2023-02-20T11:36:28.806Z,15.28
2023-02-20T11:39:03.352Z,15.34
2023-02-20T11:41:36.769Z,15.37
2023-02-20T11:44:06.418Z,15.36
2023-02-20T11:46:36.605Z,15.40
2023-02-20T11:49:10.075Z,15.45
2023-02-20T11:51:48.425Z,15.40
2023-02-20T11:54:15.029Z,15.35
2023-02-20T11:57:01.736Z,15.41
2023-02-20T11:59:37.310Z,15.32
2023-02-20T12:02:15.995Z,15.37
2023-02-20T12:05:14.960Z,15.35
2023-02-20T12:07:56.641Z,15.36
2023-02-20T12:10:34.936Z,15.30
2023-02-20T12:13:02.559Z,15.37
2023-02-20T12:15:32.494Z,15.40
2023-02-20T12:18:06.054Z,15.35
2023-02-20T12:20:32.535Z,15.32
2023-02-20T12:23:10.520Z,15.35
2023-02-20T12:26:10.367Z,15.46
2023-02-20T12:28:42.916Z,15.45
2023-02-20T12:31:21.901Z,15.36
2023-02-20T12:34:16.611Z,15.47
2023-02-20T12:36:43.396Z,15.38
2023-02-20T12:39:23.564Z,15.39
2023-02-20T12:42:02.271Z,15.47
2023-02-20T12:44:28.851Z,15.43
2023-02-20T12:47:16.514Z,15.43
2023-02-20T12:50:20.688Z,15.48
2023-02-20T12:53:33.931Z,15.33
2023-02-20T12:56:40.237Z,15.39
2023-02-20T12:59:15.401Z,15.37
2023-02-20T13:01:42.032Z,15.46
2023-02-20T13:04:23.153Z,15.48
2023-02-20T13:07:18.656Z,15.52
2023-02-20T13:10:01.818Z,15.49
2023-02-20T13:12:28.838Z,15.51
2023-02-20T13:15:11.684Z,15.52
2023-02-20T13:17:52.398Z,15.58
2023-02-20T13:20:27.204Z,15.57
2023-02-20T13:23:21.133Z,15.57
2023-02-20T13:25:56.085Z,15.74
2023-02-20T13:28:29.724Z,15.74
2023-02-20T13:31:14.446Z,15.76
2023-02-20T13:33:43.529Z,15.68
2023-02-20T13:36:37.778Z,15.75
2023-02-20T13:39:19.535Z,15.68
2023-02-20T13:41:56.696Z,15.56
2023-02-20T13:44:34.230Z,15.65
2023-02-20T13:47:03.189Z,15.65
2023-02-20T13:49:41.841Z,15.65
2023-02-20T13:52:48.629Z,15.66
2023-02-20T13:55:35.597Z,15.69
2023-02-20T13:58:08.485Z,15.64
2023-02-20T14:00:45.225Z,15.73
2023-02-20T14:03:12.809Z,15.81
2023-02-20T14:05:39.631Z,15.74
2023-02-20T14:08:06.276Z,15.71
2023-02-20T14:10:38.403Z,15.79
2023-02-20T14:13:12.495Z,15.79
2023-02-20T14:15:56.866Z,15.77
2023-02-20T14:18:34.689Z,15.67
2023-02-20T14:21:17.110Z,15.67
2023-02-20T14:23:48.502Z,15.76
2023-02-20T14:26:34.317Z,15.79
2023-02-20T14:29:01.151Z,15.79
2023-02-20T14:31:38.369Z,15.81
2023-02-20T14:34:04.977Z,15.77
2023-02-20T14:37:05.562Z,15.77
2023-02-20T14:39:50.058Z,15.76
2023-02-20T14:42:27.179Z,15.76
2023-02-20T14:45:06.519Z,15.89
2023-02-20T14:47:35.518Z,15.88
2023-02-20T14:50:17.227Z,15.89
2023-02-20T14:52:43.940Z,15.83
2023-02-20T14:55:18.667Z,15.85
2023-02-20T14:57:45.265Z,15.85
2023-02-20T15:00:17.625Z,15.89
2023-02-20T15:02:47.245Z,15.97
2023-02-20T15:05:38.514Z,16.00
2023-02-20T15:08:24.815Z,16.04
2023-02-20T15:10:56.035Z,15.95
2023-02-20T15:13:27.491Z,15.90
2023-02-20T15:16:08.578Z,15.82
2023-02-20T15:18:40.598Z,15.84
2023-02-20T15:21:07.633Z,15.94
2023-02-20T15:23:36.915Z,16.03
2023-02-20T15:26:36.115Z,15.96
2023-02-20T15:29:18.765Z,15.98
2023-02-20T15:32:06.436Z,15.90
2023-02-20T15:34:37.855Z,15.84
2023-02-20T15:37:27.148Z,15.85
2023-02-20T15:40:20.190Z,15.87
2023-02-20T15:42:46.961Z,15.83
2023-02-20T15:45:13.895Z,15.88
2023-02-20T15:47:41.017Z,15.94
2023-02-20T15:50:08.029Z,15.93
2023-02-20T15:52:37.444Z,16.00
2023-02-20T15:55:07.370Z,15.88
2023-02-20T15:57:33.963Z,15.88
2023-02-20T16:00:00.585Z,15.87
2023-02-20T16:02:27.230Z,15.90
2023-02-20T16:04:56.745Z,15.82
2023-02-20T16:07:23.452Z,15.87
2023-02-20T16:09:52.955Z,15.84
2023-02-20T16:12:25.498Z,15.88
2023-02-20T16:14:53.916Z,15.95
2023-02-20T16:17:24.623Z,15.87
2023-02-20T16:19:54.305Z,15.90
2023-02-20T16:22:21.460Z,15.88
2023-02-20T16:24:48.063Z,15.83
2023-02-20T16:27:25.938Z,15.80
2023-02-20T16:29:53.786Z,15.80
2023-02-20T16:32:26.337Z,15.92
2023-02-20T16:34:54.738Z,15.87
2023-02-20T16:37:22.111Z,15.87
2023-02-20T16:39:49.167Z,15.82
2023-02-20T16:42:20.828Z,15.99
2023-02-20T16:44:48.429Z,16.12
2023-02-20T16:47:23.637Z,16.17
2023-02-20T16:49:56.018Z,16.17
2023-02-20T16:52:38.573Z,16.18
2023-02-20T16:55:10.802Z,16.16
2023-02-20T16:57:37.451Z,16.08
2023-02-20T17:00:06.115Z,16.13
2023-02-20T17:02:32.724Z,16.25
2023-02-20T17:05:00.240Z,16.21
2023-02-20T17:07:27.666Z,16.20
2023-02-20T17:09:54.245Z,16.34
2023-02-20T17:12:23.892Z,16.31
2023-02-20T17:14:50.564Z,16.25
2023-02-20T17:17:17.227Z,16.24
2023-02-20T17:19:44.289Z,16.20
2023-02-20T17:22:14.334Z,16.21
2023-02-20T17:24:44.087Z,16.22
2023-02-20T17:27:12.469Z,16.11
2023-02-20T17:29:43.654Z,16.12
2023-02-20T17:32:10.579Z,16.11
2023-02-20T17:34:37.213Z,16.08
2023-02-20T17:37:04.293Z,16.04
2023-02-20T17:39:30.829Z,16.11
2023-02-20T17:41:57.808Z,16.09
2023-02-20T17:44:29.432Z,16.20
2023-02-20T17:46:58.224Z,16.22
2023-02-20T17:49:25.681Z,16.16
2023-02-20T17:51:55.515Z,16.20
2023-02-20T17:54:25.216Z,16.26
2023-02-20T17:56:51.835Z,16.18
2023-02-20T17:59:18.550Z,16.22
2023-02-20T18:01:45.284Z,16.26
2023-02-20T18:04:11.961Z,16.27
2023-02-20T18:06:39.153Z,16.32
2023-02-20T18:09:06.557Z,16.20
2023-02-20T18:11:33.292Z,16.20
2023-02-20T18:14:00.148Z,16.17
2023-02-20T18:16:27.772Z,16.22
2023-02-20T18:18:55.195Z,16.27
2023-02-20T18:21:25.442Z,16.25
2023-02-20T18:23:52.371Z,16.26
2023-02-20T18:26:19.078Z,16.20
2023-02-20T18:28:46.893Z,16.25
2023-02-20T18:31:14.093Z,16.25
2023-02-20T18:33:41.042Z,16.12
2023-02-20T18:36:08.782Z,16.15
2023-02-20T18:38:36.005Z,16.30
2023-02-20T18:41:02.928Z,16.30
2023-02-20T18:43:29.494Z,16.37
2023-02-20T18:45:56.570Z,16.36
2023-02-20T18:48:23.207Z,16.44
2023-02-20T18:50:51.941Z,16.41
2023-02-20T18:53:18.652Z,16.46
2023-02-20T18:55:45.231Z,16.42
2023-02-20T18:58:11.864Z,16.45
2023-02-20T19:00:40.590Z,16.48
2023-02-20T19:03:07.785Z,16.49
2023-02-20T19:05:34.469Z,16.48
2023-02-20T19:08:03.848Z,16.48
2023-02-20T19:10:31.264Z,16.33
2023-02-20T19:12:59.687Z,16.43
2023-02-20T19:15:26.503Z,16.47
2023-02-20T19:17:53.485Z,16.48
2023-02-20T19:20:28.590Z,16.48
2023-02-20T19:22:55.778Z,16.39
2023-02-20T19:25:23.167Z,16.44
2023-02-20T19:27:49.821Z,16.38
2023-02-20T19:30:16.800Z,16.40
2023-02-20T19:32:43.475Z,16.30
2023-02-20T19:35:10.562Z,16.35
2023-02-20T19:37:38.797Z,16.39
2023-02-20T19:40:07.027Z,16.34
2023-02-20T19:42:35.390Z,16.36
2023-02-20T19:45:02.148Z,16.41
2023-02-20T19:47:29.060Z,16.35
2023-02-20T19:49:55.644Z,16.38
2023-02-20T19:52:22.248Z,16.38
2023-02-20T19:54:48.917Z,16.38
2023-02-20T19:57:15.535Z,16.37
2023-02-20T19:59:42.818Z,16.34
2023-02-20T20:02:10.962Z,16.33
2023-02-20T20:04:37.574Z,16.35
2023-02-20T20:07:04.407Z,16.32
2023-02-20T20:09:36.496Z,16.22
2023-02-20T20:12:04.079Z,16.21
2023-02-20T20:14:30.702Z,16.20
2023-02-20T20:16:57.408Z,16.13
2023-02-20T20:19:24.001Z,16.17
2023-02-20T20:21:50.736Z,16.15
2023-02-20T20:24:17.610Z,16.10
2023-02-20T20:26:44.191Z,16.05
2023-02-20T20:29:10.886Z,16.15
2023-02-20T20:31:40.045Z,16.10
2023-02-20T20:34:07.630Z,16.13
2023-02-20T20:36:34.629Z,16.10
2023-02-20T20:39:01.517Z,16.09
2023-02-20T20:41:30.461Z,15.99
2023-02-20T20:44:04.583Z,16.00
2023-02-20T20:46:32.196Z,16.03
2023-02-20T20:48:58.800Z,15.99
2023-02-20T20:51:25.517Z,16.04
2023-02-20T20:53:52.089Z,16.00
2023-02-20T20:56:18.663Z,15.99
2023-02-20T20:58:45.420Z,16.04
2023-02-20T21:01:12.563Z,16.03
2023-02-20T21:03:39.382Z,15.98
2023-02-20T21:06:06.173Z,15.99
2023-02-20T21:08:33.809Z,15.91
2023-02-20T21:11:00.455Z,15.97
2023-02-20T21:13:27.069Z,15.96
2023-02-20T21:15:53.695Z,15.90
2023-02-20T21:18:23.300Z,15.99
2023-02-20T21:20:49.889Z,15.90
2023-02-20T21:23:16.543Z,15.95
2023-02-20T21:25:43.162Z,15.94
2023-02-20T21:28:09.747Z,15.93
2023-02-20T21:30:36.366Z,15.97
2023-02-20T21:33:03.031Z,15.92
2023-02-20T21:35:29.631Z,15.94
2023-02-20T21:37:56.538Z,15.90
2023-02-20T21:40:23.212Z,15.92
2023-02-20T21:43:08.402Z,15.91
2023-02-20T21:45:36.477Z,15.98
2023-02-20T21:48:04.475Z,15.92
2023-02-20T21:50:31.174Z,15.92
2023-02-20T21:52:57.832Z,15.93
2023-02-20T21:55:24.489Z,15.93
2023-02-20T21:57:51.491Z,15.96
2023-02-20T22:00:18.223Z,15.95
2023-02-20T22:02:44.796Z,15.92
2023-02-20T22:05:12.066Z,15.93
2023-02-20T22:07:57.627Z,15.94
2023-02-20T22:10:43.380Z,15.92
2023-02-20T22:13:28.470Z,15.96
2023-02-20T22:16:13.355Z,15.96
2023-02-20T22:18:58.669Z,15.87
2023-02-20T22:21:44.794Z,15.92
2023-02-20T22:24:37.915Z,15.97
2023-02-20T22:27:27.067Z,15.87
2023-02-20T22:30:12.712Z,15.82
2023-02-20T22:32:57.982Z,15.79
2023-02-20T22:35:42.973Z,15.89
2023-02-20T22:38:28.406Z,15.69
2023-02-20T22:41:13.834Z,15.68
2023-02-20T22:43:59.397Z,15.69
2023-02-20T22:46:44.642Z,15.65
2023-02-20T22:49:29.752Z,15.61
2023-02-20T22:52:14.937Z,15.58
2023-02-20T22:55:05.007Z,15.56
2023-02-20T22:57:51.247Z,15.61
2023-02-20T23:00:37.035Z,15.54
2023-02-20T23:03:22.735Z,15.53
2023-02-20T23:06:16.878Z,15.61
2023-02-20T23:09:02.988Z,15.49
2023-02-20T23:11:51.779Z,15.53
2023-02-20T23:14:37.090Z,15.43
2023-02-20T23:17:36.346Z,15.41
2023-02-20T23:20:37.590Z,15.45
2023-02-20T23:23:22.929Z,15.42
2023-02-20T23:26:08.448Z,15.44
2023-02-20T23:28:54.286Z,15.40
2023-02-20T23:31:54.140Z,15.39
2023-02-20T23:34:39.427Z,15.45
2023-02-20T23:37:24.556Z,15.44
2023-02-20T23:40:10.001Z,15.42
2023-02-20T23:42:55.060Z,15.43
2023-02-20T23:45:40.182Z,15.38
2023-02-20T23:48:25.145Z,15.43
2023-02-20T23:51:10.186Z,15.40
2023-02-20T23:53:56.593Z,15.36
2023-02-20T23:56:42.256Z,15.36
2023-02-20T23:59:27.854Z,15.38
